Time;durP1;ratioP1;P1;durP2;ratioP2;P2;SDS_P1;SDS_P2;PMS_P1;PMS_P2;Temp;Humidity;BMP_temperature;BMP_pressure;BME280_temperature;BME280_humidity;BME280_pressure;Samples;Min_cycle;Max_cycle;Signal;HPM_P1;HPM_P2
2021/04/26 00:00:21;;;;;;;27.77;14.43;;;;;;;-3.80;69.02;100068.17;1727835;80;21195;-72
2021/04/26 00:02:50;;;;;;;24.90;12.23;;;;;;;-3.83;69.02;100067.27;1736664;81;21022;-73
2021/04/26 00:05:18;;;;;;;19.12;11.22;;;;;;;-3.86;68.97;100057.45;1732067;80;21407;-72
2021/04/26 00:07:45;;;;;;;22.95;11.80;;;;;;;-3.91;68.96;100058.63;1753145;80;21065;-72
2021/04/26 00:10:14;;;;;;;20.25;11.33;;;;;;;-3.96;69.03;100060.25;1736225;81;22107;-73
2021/04/26 00:12:42;;;;;;;24.05;12.78;;;;;;;-4.02;69.09;100055.05;1739929;80;21229;-72
2021/04/26 00:15:14;;;;;;;25.50;13.93;;;;;;;-4.07;69.16;100055.38;1775053;79;21213;-73
2021/04/26 00:17:41;;;;;;;31.73;14.90;;;;;;;-4.10;69.13;100047.26;1752848;79;21717;-72
2021/04/26 00:20:11;;;;;;;37.48;17.75;;;;;;;-4.09;69.24;100054.48;1749471;80;21197;-72
2021/04/26 00:22:39;;;;;;;33.75;16.60;;;;;;;-4.09;69.26;100055.38;1747643;80;21161;-73
2021/04/26 00:25:07;;;;;;;32.03;17.07;;;;;;;-4.11;69.26;100050.66;1738189;80;21199;-73
2021/04/26 00:27:38;;;;;;;36.33;17.80;;;;;;;-4.11;69.26;100050.66;1748575;80;21615;-72
2021/04/26 00:30:10;;;;;;;30.57;16.37;;;;;;;-4.14;69.24;100054.84;1740950;80;22369;-73
2021/04/26 00:32:37;;;;;;;27.67;15.55;;;;;;;-4.19;69.29;100051.35;1746917;80;21690;-73
2021/04/26 00:35:05;;;;;;;32.35;16.37;;;;;;;-4.24;69.35;100045.31;1727945;80;21080;-73
2021/04/26 00:37:32;;;;;;;34.60;15.55;;;;;;;-4.31;69.35;100042.66;1767431;79;21177;-73
2021/04/26 00:40:00;;;;;;;26.45;14.80;;;;;;;-4.34;69.42;100038.78;1755714;79;21223;-72
2021/04/26 00:42:27;;;;;;;31.52;15.05;;;;;;;-4.37;69.52;100037.45;1758737;79;22471;-73
2021/04/26 00:44:54;;;;;;;33.13;15.65;;;;;;;-4.40;69.49;100034.82;1746923;80;21314;-73
2021/04/26 00:47:21;;;;;;;32.45;15.05;;;;;;;-4.42;69.49;100041.61;1755179;81;21150;-73
2021/04/26 00:49:48;;;;;;;26.55;13.58;;;;;;;-4.44;69.62;100032.21;1748173;81;21156;-72
2021/04/26 00:52:15;;;;;;;24.77;12.75;;;;;;;-4.46;69.75;100035.99;1752410;80;21215;-73
2021/04/26 00:54:43;;;;;;;23.85;13.00;;;;;;;-4.48;69.75;100036.41;1745143;81;21479;-73
2021/04/26 00:57:10;;;;;;;34.70;14.13;;;;;;;-4.48;69.80;100033.85;1753641;81;21027;-73
2021/04/26 00:59:39;;;;;;;22.98;12.25;;;;;;;-4.48;69.83;100036.41;1748494;81;21159;-73
2021/04/26 01:02:06;;;;;;;24.52;13.70;;;;;;;-4.49;69.85;100034.66;1752201;81;20987;-73
2021/04/26 01:04:33;;;;;;;25.15;13.38;;;;;;;-4.51;69.89;100024.84;1771776;79;21168;-74
2021/04/26 01:07:00;;;;;;;22.37;12.03;;;;;;;-4.52;69.95;100028.23;1742463;81;21327;-73
2021/04/26 01:09:27;;;;;;;28.98;12.85;;;;;;;-4.52;69.94;100025.27;1778082;79;21192;-72
2021/04/26 01:12:23;;;;;;;23.38;11.80;;;;;;;-4.49;69.98;100021.92;1771716;80;21568;-73
2021/04/26 01:15:13;;;;;;;30.05;14.18;;;;;;;-4.42;70.12;100021.64;1747290;81;21162;-73
2021/04/26 01:17:45;;;;;;;23.25;11.63;;;;;;;-4.33;70.21;100011.17;1748829;80;21199;-73
2021/04/26 01:20:48;;;;;;;24.82;12.82;;;;;;;-4.28;70.26;100012.11;1750477;80;21690;-73
2021/04/26 01:24:02;;;;;;;27.40;12.70;;;;;;;-4.25;70.28;100015.56;1755051;80;21181;-72
2021/04/26 01:26:43;;;;;;;24.55;12.50;;;;;;;-4.27;70.26;100008.72;1677125;84;21139;-73
2021/04/26 01:29:30;;;;;;;21.52;11.38;;;;;;;-4.29;70.20;100008.25;1674648;84;21166;-73
2021/04/26 01:32:45;;;;;;;23.22;12.70;;;;;;;-4.33;70.20;100008.62;1650627;85;21250;-73
2021/04/26 01:35:16;;;;;;;21.27;10.15;;;;;;;-4.39;70.12;100011.49;1726666;82;22177;-73
2021/04/26 01:37:46;;;;;;;21.93;11.70;;;;;;;-4.45;70.23;100007.14;1725243;82;21107;-73
2021/04/26 01:40:15;;;;;;;24.57;10.03;;;;;;;-4.50;70.23;100007.47;1722837;82;21171;-73
2021/04/26 01:42:47;;;;;;;27.60;10.32;;;;;;;-4.54;70.32;100003.13;1719530;82;21234;-72
2021/04/26 01:45:16;;;;;;;21.87;11.53;;;;;;;-4.56;70.42;100003.13;1720302;82;21254;-73
2021/04/26 01:47:46;;;;;;;20.92;9.60;;;;;;;-4.54;70.43;100003.13;1720283;82;21282;-72
2021/04/26 01:50:15;;;;;;;20.90;9.75;;;;;;;-4.55;70.43;99996.33;1719306;82;21158;-72
2021/04/26 01:52:42;;;;;;;24.90;10.08;;;;;;;-4.58;70.53;99993.73;1730081;81;21191;-73
2021/04/26 01:55:12;;;;;;;15.05;7.60;;;;;;;-4.60;70.54;99988.59;1730295;81;21080;-73
2021/04/26 01:57:42;;;;;;;15.43;9.23;;;;;;;-4.60;70.60;99983.92;1726654;81;21250;-73
2021/04/26 02:00:25;;;;;;;18.27;8.88;;;;;;;-4.59;70.63;99984.38;1730768;81;22113;-73
2021/04/26 02:03:02;;;;;;;16.62;8.90;;;;;;;-4.50;70.78;99981.98;1795496;78;22794;-72
2021/04/26 02:05:31;;;;;;;16.70;9.23;;;;;;;-4.50;70.77;99978.16;1766458;79;21002;-72
2021/04/26 02:07:58;;;;;;;15.63;7.72;;;;;;;-4.46;70.82;99981.19;1765032;80;21198;-72
2021/04/26 02:10:28;;;;;;;16.82;8.70;;;;;;;-4.44;70.81;99981.23;1766807;79;21027;-71
2021/04/26 02:12:57;;;;;;;19.95;10.43;;;;;;;-4.43;70.85;99981.24;1769121;79;21048;-72
2021/04/26 02:15:29;;;;;;;20.40;10.65;;;;;;;-4.44;70.80;99974.44;1768543;80;21024;-73
2021/04/26 02:17:56;;;;;;;12.70;8.08;;;;;;;-4.42;70.91;99975.34;1770457;79;21080;-73
2021/04/26 02:20:23;;;;;;;;;;;;;;;-4.39;71.02;99974.53;1766208;80;22727;-73
2021/04/26 02:22:51;;;;;;;14.50;8.23;;;;;;;-4.36;71.07;99966.94;1766159;80;20171;-73
2021/04/26 02:25:20;;;;;;;15.63;8.35;;;;;;;-4.36;71.00;99962.69;1766717;80;21052;-72
2021/04/26 02:27:48;;;;;;;17.32;8.35;;;;;;;-4.38;70.97;99970.72;1773672;79;21073;-73
2021/04/26 02:30:16;;;;;;;14.35;8.10;;;;;;;-4.38;71.03;99969.44;1767898;80;21184;-73
2021/04/26 02:33:04;;;;;;;12.82;7.75;;;;;;;-4.40;70.97;99968.55;1763288;80;21349;-73
2021/04/26 02:35:44;;;;;;;15.83;8.10;;;;;;;-4.39;70.99;99966.88;1763130;80;20993;-73
2021/04/26 02:38:16;;;;;;;14.55;7.95;;;;;;;-4.41;70.88;99974.48;1767507;80;21602;-72
2021/04/26 02:40:51;;;;;;;16.15;8.88;;;;;;;-4.39;70.99;99977.93;1763901;80;21072;-73
2021/04/26 02:43:20;;;;;;;12.28;8.00;;;;;;;-4.40;70.91;99973.64;1768126;80;21217;-72
2021/04/26 02:45:52;;;;;;;13.28;7.75;;;;;;;-4.44;70.88;99973.16;1763240;80;21204;-73
2021/04/26 02:48:21;;;;;;;14.83;7.45;;;;;;;-4.49;70.93;99965.85;1767773;80;21044;-73
2021/04/26 02:50:57;;;;;;;11.57;7.00;;;;;;;-4.49;70.94;99970.95;1765453;79;21128;-73
2021/04/26 02:53:29;;;;;;;13.88;7.45;;;;;;;-4.49;70.94;99963.30;1770132;80;21013;-72
2021/04/26 02:56:02;;;;;;;14.53;7.37;;;;;;;-4.50;71.08;99970.52;1768731;80;21167;-72
2021/04/26 02:58:31;;;;;;;13.55;7.95;;;;;;;-4.47;71.13;99970.57;1769633;80;21827;-72
2021/04/26 03:00:59;;;;;;;12.43;7.50;;;;;;;-4.46;71.07;99963.35;1773650;79;21613;-72
2021/04/26 03:03:28;;;;;;;19.80;7.90;;;;;;;-4.44;71.13;99965.94;1755553;81;21162;-72
2021/04/26 03:05:56;;;;;;;17.23;7.60;;;;;;;-4.45;71.01;99962.55;1750760;80;21089;-72
2021/04/26 03:08:23;;;;;;;;;;;;;;;-4.46;71.09;99964.63;1757529;80;21147;-73
2021/04/26 03:10:51;;;;;;;11.48;6.70;;;;;;;-4.45;71.26;99962.55;1756037;80;21197;-73
2021/04/26 03:13:19;;;;;;;11.55;6.42;;;;;;;-4.45;71.21;99963.81;1752783;80;21253;-72
2021/04/26 03:15:47;;;;;;;11.75;7.12;;;;;;;-4.44;71.34;99965.52;1752870;80;21183;-72
2021/04/26 03:18:14;;;;;;;;;;;;;;;-4.38;71.47;99960.52;1753008;80;21069;-72
2021/04/26 03:20:42;;;;;;;15.65;5.25;;;;;;;-4.32;71.62;99961.89;1754028;80;20526;-72
2021/04/26 03:23:21;;;;;;;9.38;6.00;;;;;;;-4.25;71.74;99954.37;1754332;80;21255;-72
2021/04/26 03:25:49;;;;;;;14.28;5.85;;;;;;;-4.19;71.68;99957.02;1749241;80;21220;-73
2021/04/26 03:28:21;;;;;;;12.00;6.12;;;;;;;-4.14;71.64;99961.77;1753785;80;21061;-72
2021/04/26 03:30:48;;;;;;;10.03;6.17;;;;;;;-4.09;71.60;99958.84;1753171;80;21222;-73
2021/04/26 03:33:16;;;;;;;11.97;6.25;;;;;;;-4.07;71.58;99960.59;1752834;81;21602;-73
2021/04/26 03:35:44;;;;;;;12.70;6.70;;;;;;;-4.10;71.35;99959.70;1753798;80;21209;-73
2021/04/26 03:38:11;;;;;;;11.55;6.35;;;;;;;-4.18;71.22;99958.72;1752162;80;21176;-73
2021/04/26 03:40:40;;;;;;;9.93;6.60;;;;;;;-4.25;71.21;99951.81;1753665;80;21691;-73
2021/04/26 03:43:07;;;;;;;13.30;6.22;;;;;;;-4.30;71.29;99955.13;1743326;80;21245;-73
2021/04/26 03:45:34;;;;;;;11.55;6.37;;;;;;;-4.31;71.40;99950.88;1752787;80;21224;-73
2021/04/26 03:48:01;;;;;;;14.40;6.25;;;;;;;-4.29;71.46;99951.73;1753398;81;21201;-73
2021/04/26 03:50:28;;;;;;;10.30;5.67;;;;;;;-4.23;71.50;99948.85;1754705;80;21241;-74
2021/04/26 03:52:55;;;;;;;10.85;6.40;;;;;;;-4.19;71.43;99942.56;1754169;80;21188;-73
2021/04/26 03:55:23;;;;;;;11.93;6.60;;;;;;;-4.19;71.34;99948.94;1758084;80;21746;-73
2021/04/26 03:57:51;;;;;;;10.58;6.10;;;;;;;-4.15;71.44;99957.48;1752128;81;21559;-73
2021/04/26 04:00:21;;;;;;;16.12;6.90;;;;;;;-4.05;71.54;99958.08;1752048;80;21208;-73
2021/04/26 04:02:49;;;;;;;13.58;7.03;;;;;;;-3.94;71.57;99951.45;1741498;81;21225;-73
2021/04/26 04:05:17;;;;;;;23.67;16.00;;;;;;;-3.51;72.18;99954.59;1733631;81;21155;-73
2021/04/26 04:07:44;;;;;;;17.32;8.98;;;;;;;-2.61;72.26;99949.66;1734874;81;21167;-73
2021/04/26 04:10:14;;;;;;;20.50;11.33;;;;;;;-2.05;71.54;99951.84;1737362;81;21164;-73
2021/04/26 04:12:41;;;;;;;20.50;11.10;;;;;;;-1.59;71.48;99953.44;1739155;81;22158;-73
2021/04/26 04:15:10;;;;;;;17.80;11.73;;;;;;;-1.10;71.16;99950.66;1739539;81;21136;-73
2021/04/26 04:17:39;;;;;;;19.92;11.68;;;;;;;-0.60;71.26;99955.08;1734641;81;21137;-73
2021/04/26 04:20:09;;;;;;;64.87;35.17;;;;;;;0.06;71.01;99950.84;1737976;81;21155;-73
2021/04/26 04:22:36;;;;;;;46.25;25.52;;;;;;;0.68;70.51;99946.41;1737153;81;21148;-73
2021/04/26 04:25:05;;;;;;;33.83;17.77;;;;;;;1.06;70.09;99943.66;1737165;81;22968;-73
2021/04/26 04:27:33;;;;;;;16.62;9.43;;;;;;;0.98;68.53;99955.72;1732066;81;21670;-73
2021/04/26 04:30:00;;;;;;;;;;;;;;;0.69;69.37;99960.11;1719495;81;21171;-73
2021/04/26 04:32:27;;;;;;;9.13;6.30;;;;;;;1.29;70.37;99958.98;1736859;81;20374;-73
2021/04/26 04:34:54;;;;;;;11.05;5.92;;;;;;;2.46;69.84;99958.91;1740795;81;21254;-74
2021/04/26 04:37:21;;;;;;;6.62;4.72;;;;;;;2.61;68.28;99959.61;1735453;81;21433;-73
2021/04/26 04:39:48;;;;;;;6.28;3.75;;;;;;;2.85;68.16;99960.59;1743531;81;21139;-74
2021/04/26 04:42:15;;;;;;;5.45;3.22;;;;;;;3.31;67.24;99964.33;1737090;81;21202;-73
2021/04/26 04:44:42;;;;;;;5.95;3.62;;;;;;;3.55;68.37;99964.40;1738431;81;25126;-74
2021/04/26 04:47:09;;;;;;;6.03;3.37;;;;;;;3.95;68.68;99967.64;1736668;81;26966;-73
2021/04/26 04:49:36;;;;;;;4.78;2.90;;;;;;;4.70;68.02;99968.48;1740957;81;21959;-74
2021/04/26 04:52:04;;;;;;;5.30;3.33;;;;;;;4.98;65.15;99960.15;1740147;81;21275;-73
2021/04/26 04:54:31;;;;;;;;;;;;;;;4.14;65.09;99967.75;1741882;81;21662;-74
2021/04/26 04:56:58;;;;;;;4.47;2.30;;;;;;;4.12;67.09;99961.78;1738931;81;20303;-74
2021/04/26 04:59:25;;;;;;;6.83;2.60;;;;;;;3.87;66.38;99973.41;1742295;81;21213;-74
2021/04/26 05:01:52;;;;;;;6.58;3.08;;;;;;;3.42;67.97;99953.83;1743776;80;21306;-74
2021/04/26 05:04:20;;;;;;;4.87;2.55;;;;;;;3.26;68.58;99939.86;1768371;80;21587;-75
2021/04/26 05:06:46;;;;;;;2.77;1.87;;;;;;;3.15;68.80;99952.06;1752438;80;21061;-74
2021/04/26 05:09:13;;;;;;;4.08;2.42;;;;;;;3.04;68.69;99956.51;1770965;80;21598;-74
2021/04/26 05:11:41;;;;;;;5.58;2.40;;;;;;;3.37;69.59;99959.08;1776459;80;21614;-74
2021/04/26 05:14:07;;;;;;;4.35;2.98;;;;;;;4.75;70.58;99954.59;1766003;80;21208;-74
2021/04/26 05:16:35;;;;;;;5.28;3.30;;;;;;;6.24;70.10;99946.90;1773750;80;21158;-74
2021/04/26 05:19:02;;;;;;;;;;;;;;;7.11;68.50;99943.62;1768841;80;21052;-74
2021/04/26 05:21:29;;;;;;;9.08;4.20;;;;;;;7.33;67.52;99942.09;1771974;80;20622;-74
2021/04/26 05:23:56;;;;;;;7.78;4.60;;;;;;;7.07;67.39;99944.62;1773653;80;21925;-74
2021/04/26 05:26:26;;;;;;;29.10;6.42;;;;;;;6.67;67.28;99948.37;1766591;80;21254;-74
2021/04/26 05:28:54;;;;;;;8.50;4.10;;;;;;;6.19;67.23;99946.16;1768623;80;21208;-72
2021/04/26 05:31:21;;;;;;;6.20;3.70;;;;;;;5.82;67.58;99949.64;1770161;80;21867;-75
2021/04/26 05:33:48;;;;;;;7.40;3.55;;;;;;;6.63;69.05;99942.39;1771768;80;21143;-74
2021/04/26 05:36:15;;;;;;;;;;;;;;;7.79;68.41;99939.36;1772454;80;21176;-73
2021/04/26 05:38:42;;;;;;;6.15;3.15;;;;;;;8.76;67.92;99933.92;1768614;80;21134;-75
2021/04/26 05:41:09;;;;;;;37.80;4.85;;;;;;;9.47;67.16;99930.81;1769451;78;21558;-74
2021/04/26 05:43:36;;;;;;;62.73;8.25;;;;;;;10.06;67.02;99929.69;1773372;80;21084;-72
2021/04/26 05:46:04;;;;;;;16.70;3.83;;;;;;;10.71;66.90;99929.55;1769662;80;21093;-72
2021/04/26 05:48:32;;;;;;;;;;;;;;;11.48;66.33;99920.78;1774928;79;21143;-75
2021/04/26 05:51:00;;;;;;;7.62;3.40;;;;;;;11.79;65.14;99927.55;1769236;80;21275;-72
2021/04/26 05:53:27;;;;;;;;;;;;;;;12.08;66.04;99924.82;1770382;79;21566;-71
2021/04/26 05:55:53;;;;;;;7.30;2.27;;;;;;;12.52;65.28;99922.17;1764815;80;20310;-74
2021/04/26 05:58:21;;;;;;;;;;;;;;;12.27;63.49;99926.05;1772491;80;21199;-75
2021/04/26 06:00:48;;;;;;;16.87;3.70;;;;;;;12.25;64.07;99925.74;1769210;80;20222;-76
2021/04/26 06:03:15;;;;;;;31.07;4.17;;;;;;;12.35;65.00;99926.10;1766969;80;21218;-76
2021/04/26 06:05:42;;;;;;;14.87;3.27;;;;;;;12.76;65.24;99926.10;1766020;80;21529;-76
2021/04/26 06:08:10;;;;;;;5.85;2.00;;;;;;;12.84;64.53;99927.48;1764218;79;21211;-76
2021/04/26 06:10:37;;;;;;;8.23;1.35;;;;;;;12.54;63.11;99934.70;1769001;80;21088;-76
2021/04/26 06:13:04;;;;;;;3.75;1.12;;;;;;;11.91;62.07;99923.98;1773239;79;21198;-73
2021/04/26 06:15:31;;;;;;;2.92;1.47;;;;;;;11.08;59.13;99933.11;1747038;80;22695;-74
2021/04/26 06:18:17;;;;;;;;;;;;;;;10.04;60.15;99932.80;1772138;80;21169;-74
2021/04/26 06:20:47;;;;;;;3.45;0.80;;;;;;;9.69;61.24;99930.78;1765058;80;20318;-74
2021/04/26 06:23:15;;;;;;;1.67;0.90;;;;;;;9.55;60.41;99937.42;1766847;79;21733;-74
2021/04/26 06:25:43;;;;;;;2.52;1.00;;;;;;;9.06;59.67;99935.39;1770384;80;21270;-74
2021/04/26 06:28:12;;;;;;;1.60;0.60;;;;;;;8.83;62.10;99932.80;1768968;80;21929;-75
2021/04/26 06:30:43;;;;;;;1.65;0.78;;;;;;;9.32;62.74;99934.84;1766703;79;22063;-75
2021/04/26 06:35:54;;;;;;;2.25;0.80;;;;;;;9.91;61.31;99926.39;1826446;77;22556;-74
2021/04/26 06:38:36;;;;;;;1.75;0.90;;;;;;;9.77;60.95;99927.41;1801776;78;21060;-75
2021/04/26 06:41:03;;;;;;;2.02;0.90;;;;;;;9.57;61.08;99930.37;1798350;77;21199;-74
2021/04/26 06:43:29;;;;;;;;;;;;;;;9.54;61.31;99923.98;1804811;78;21577;-74
2021/04/26 06:45:58;;;;;;;2.70;0.80;;;;;;;9.74;61.41;99935.37;1798801;78;20152;-74
2021/04/26 06:48:25;;;;;;;2.45;0.90;;;;;;;9.40;57.97;99936.70;1795211;78;21663;-75
2021/04/26 06:50:52;;;;;;;;;;;;;;;8.69;58.58;99931.55;1799472;78;22291;-74
2021/04/26 06:53:18;;;;;;;;;;;;;;;8.58;58.95;99936.29;1799892;78;21246;-74
2021/04/26 06:55:45;;;;;;;1.90;1.00;;;;;;;8.37;59.09;99927.89;1799588;78;20530;-75
2021/04/26 06:58:13;;;;;;;2.37;1.30;;;;;;;8.38;59.80;99936.12;1801082;78;20989;-75
2021/04/26 07:00:40;;;;;;;2.22;1.52;;;;;;;8.14;56.39;99932.14;1803519;77;21163;-74
2021/04/26 07:03:07;;;;;;;;;;;;;;;6.88;57.39;99945.15;1800694;78;22190;-74
2021/04/26 07:05:34;;;;;;;4.85;1.82;;;;;;;5.95;58.77;99949.79;1800421;78;21185;-74
2021/04/26 07:08:01;;;;;;;3.85;1.50;;;;;;;5.18;60.10;99961.47;1804660;78;26786;-74
2021/04/26 07:10:28;;;;;;;4.15;2.00;;;;;;;4.48;60.52;99969.74;1795331;78;21919;-73
2021/04/26 07:12:55;;;;;;;;;;;;;;;3.92;61.48;99978.03;1799774;78;21227;-73
2021/04/26 07:15:22;;;;;;;2.92;1.90;;;;;;;3.36;62.51;99980.17;1797319;78;27001;-73
2021/04/26 07:17:50;;;;;;;6.80;2.12;;;;;;;3.01;62.84;99974.61;1797044;78;21487;-72
2021/04/26 07:20:17;;;;;;;5.72;2.15;;;;;;;2.87;63.07;99976.91;1791645;78;21678;-73
2021/04/26 07:22:46;;;;;;;4.80;2.70;;;;;;;2.93;63.77;99972.11;1793406;78;22020;-72
2021/04/26 07:25:13;;;;;;;3.72;2.30;;;;;;;3.23;64.11;99980.34;1795193;78;21177;-72
2021/04/26 07:27:41;;;;;;;4.78;1.75;;;;;;;3.71;64.05;99973.62;1798940;78;21229;-69
2021/04/26 07:30:10;;;;;;;2.42;1.50;;;;;;;3.81;63.81;99977.78;1794959;78;21184;-77
2021/04/26 07:32:37;;;;;;;3.62;1.77;;;;;;;3.59;63.31;99981.56;1800611;78;21187;-75
2021/04/26 07:35:06;;;;;;;3.42;1.40;;;;;;;3.50;63.45;99981.67;1792485;78;21207;-72
2021/04/26 07:37:36;;;;;;;3.05;1.72;;;;;;;3.56;64.50;99979.03;1784640;79;21669;-74
2021/04/26 07:40:06;;;;;;;2.77;1.72;;;;;;;3.72;64.46;99969.31;1777823;78;21247;-73
2021/04/26 07:42:33;;;;;;;2.58;1.52;;;;;;;4.07;64.42;99973.92;1786067;78;22174;-71
2021/04/26 07:45:00;;;;;;;4.85;1.22;;;;;;;4.54;64.52;99967.48;1781408;78;21713;-72
2021/04/26 07:47:27;;;;;;;2.35;0.80;;;;;;;4.91;64.63;99968.94;1786005;78;21294;-71
2021/04/26 07:49:54;;;;;;;6.08;0.60;;;;;;;5.37;64.11;99965.36;1785211;78;21260;-71
2021/04/26 07:52:23;;;;;;;3.80;1.00;;;;;;;5.45;64.17;99955.69;1780361;78;21682;-71
2021/04/26 07:54:50;;;;;;;1.30;0.90;;;;;;;5.86;64.81;99953.88;1782599;78;21478;-72
2021/04/26 07:57:19;;;;;;;1.70;1.10;;;;;;;5.98;63.86;99952.30;1780210;79;21255;-71
2021/04/26 07:59:45;;;;;;;2.65;1.07;;;;;;;6.29;64.54;99952.83;1783870;79;21193;-71
2021/04/26 08:02:12;;;;;;;2.20;0.75;;;;;;;6.75;64.66;99952.91;1782275;78;21200;-71
2021/04/26 08:04:43;;;;;;;2.50;0.95;;;;;;;6.90;63.85;99956.34;1783707;79;21176;-71
2021/04/26 08:07:11;;;;;;;1.95;0.70;;;;;;;6.76;63.86;99958.48;1782724;79;22159;-70
2021/04/26 08:10:52;;;;;;;1.87;0.90;;;;;;;6.64;63.51;99952.34;1838309;76;22900;-71
2021/04/26 08:13:20;;;;;;;1.60;0.90;;;;;;;6.41;63.74;99958.13;1804288;77;21264;-71
2021/04/26 08:15:47;;;;;;;5.37;1.15;;;;;;;6.32;63.94;99951.44;1808882;78;21257;-71
2021/04/26 08:18:14;;;;;;;11.18;1.35;;;;;;;6.20;63.88;99955.66;1809239;78;21256;-71
2021/04/26 08:20:41;;;;;;;12.95;2.50;;;;;;;6.13;64.01;99959.29;1809424;77;21239;-68
2021/04/26 08:23:08;;;;;;;7.28;2.08;;;;;;;6.16;64.11;99954.02;1811749;78;21643;-69
2021/04/26 08:25:37;;;;;;;7.65;3.42;;;;;;;6.23;64.37;99954.28;1811806;77;21062;-69
2021/04/26 08:28:04;;;;;;;3.87;1.60;;;;;;;6.41;64.36;99959.01;1808303;77;22153;-71
2021/04/26 08:30:32;;;;;;;3.47;1.95;;;;;;;6.43;64.05;99950.72;1810546;77;21624;-73
2021/04/26 08:32:59;;;;;;;8.80;4.08;;;;;;;6.44;64.28;99955.03;1808032;77;21048;-70
2021/04/26 08:35:26;;;;;;;3.85;1.75;;;;;;;6.66;64.39;99951.84;1806346;78;21177;-71
2021/04/26 08:37:56;;;;;;;2.90;0.80;;;;;;;6.72;64.18;99949.06;1808767;77;21578;-71
2021/04/26 08:40:23;;;;;;;6.12;1.62;;;;;;;7.08;64.67;99954.95;1808806;77;22126;-71
2021/04/26 08:42:50;;;;;;;;;;;;;;;7.00;63.18;99950.88;1787681;78;21180;-71
2021/04/26 08:45:19;;;;;;;2.02;1.07;;;;;;;6.43;62.46;99949.88;1809456;77;20254;-71
2021/04/26 08:47:46;;;;;;;1.30;0.80;;;;;;;5.79;62.70;99954.91;1809796;77;21149;-71
2021/04/26 08:50:14;;;;;;;1.95;1.20;;;;;;;5.45;63.65;99941.89;1805778;77;21188;-71
2021/04/26 08:52:42;;;;;;;3.25;1.80;;;;;;;5.49;63.67;99953.45;1804856;77;21680;-71
2021/04/26 08:55:11;;;;;;;5.92;1.17;;;;;;;5.32;63.97;99944.77;1804288;78;21209;-71
2021/04/26 08:57:38;;;;;;;2.75;1.57;;;;;;;5.33;63.47;99957.27;1808684;77;21472;-71
2021/04/26 09:00:08;;;;;;;4.92;1.57;;;;;;;4.89;61.82;99944.82;1802697;77;22163;-70
2021/04/26 09:02:53;;;;;;;3.37;1.62;;;;;;;4.73;62.12;99953.77;1811223;78;21173;-70
2021/04/26 09:05:52;;;;;;;2.15;0.93;;;;;;;4.67;61.61;99951.70;1829560;76;22595;-72
2021/04/26 09:08:23;;;;;;;2.98;1.15;;;;;;;4.60;61.25;99968.69;1795937;78;21696;-72
2021/04/26 09:10:53;;;;;;;0.90;0.37;;;;;;;4.36;60.12;99962.22;1791307;77;21198;-72
2021/04/26 09:13:42;;;;;;;1.47;0.60;;;;;;;4.26;62.45;99951.20;1799739;78;21212;-72
2021/04/26 09:16:22;;;;;;;1.12;0.60;;;;;;;4.33;62.55;99954.52;1801212;78;21032;-72
2021/04/26 09:19:01;;;;;;;0.93;0.62;;;;;;;4.28;62.54;99953.75;1743399;80;22767;-73
2021/04/26 09:21:37;;;;;;;1.30;0.72;;;;;;;4.39;62.94;99958.28;1707337;81;21037;-72
2021/04/26 09:24:26;;;;;;;1.07;0.60;;;;;;;4.60;62.70;99951.42;1730265;81;21228;-72
2021/04/26 09:27:03;;;;;;;4.40;1.12;;;;;;;4.75;61.11;99954.59;1748398;80;21212;-72
2021/04/26 09:29:32;;;;;;;1.47;0.70;;;;;;;4.73;62.35;99956.35;1752742;78;21211;-72
2021/04/26 09:32:16;;;;;;;1.20;0.68;;;;;;;4.83;60.77;99954.00;1745984;80;21210;-72
2021/04/26 09:34:52;;;;;;;2.83;0.98;;;;;;;5.02;61.10;99953.20;1762299;80;21292;-72
2021/04/26 09:37:28;;;;;;;0.57;0.40;;;;;;;5.41;61.52;99954.06;1765738;79;21208;-72
2021/04/26 09:40:13;;;;;;;1.50;0.42;;;;;;;5.29;59.63;99951.73;1762345;80;21198;-72
2021/04/26 09:42:53;;;;;;;1.00;0.42;;;;;;;5.60;56.81;99957.06;1763125;80;21707;-72
2021/04/26 09:45:33;;;;;;;0.75;0.40;;;;;;;5.64;59.48;99953.98;1764719;79;21224;-72
2021/04/26 09:51:07;;;;;;;1.07;0.30;;;;;;;4.83;56.92;99965.64;1798370;78;22766;-71
2021/04/26 09:53:39;;;;;;;0.95;0.50;;;;;;;4.57;58.27;99964.42;1770938;80;21054;-72
2021/04/26 09:56:29;;;;;;;0.75;0.42;;;;;;;4.43;56.69;99967.70;1763387;79;21380;-72
2021/04/26 09:59:02;;;;;;;2.27;0.40;;;;;;;4.55;58.32;99966.17;1766497;80;21748;-71
2021/04/26 10:01:32;;;;;;;0.75;0.50;;;;;;;4.94;58.93;99958.52;1769300;79;21001;-73
2021/04/26 10:04:02;;;;;;;1.67;0.60;;;;;;;5.32;58.58;99956.84;1765162;80;21187;-74
2021/04/26 10:06:30;;;;;;;0.85;0.50;;;;;;;5.61;58.19;99946.69;1768952;80;21058;-73
2021/04/26 10:09:05;;;;;;;1.40;0.42;;;;;;;5.82;57.09;99952.23;1771594;79;21638;-73
2021/04/26 10:11:34;;;;;;;0.75;0.30;;;;;;;5.23;52.50;99957.89;1772594;80;21072;-74
2021/04/26 10:14:14;;;;;;;0.93;0.40;;;;;;;4.74;52.02;99950.31;1768026;79;22558;-73
2021/04/26 10:17:02;;;;;;;3.12;0.72;;;;;;;4.63;56.28;99953.95;1771571;80;21654;-73
2021/04/26 10:19:38;;;;;;;0.40;0.30;;;;;;;4.83;56.24;99945.80;1772941;79;21163;-72
2021/04/26 10:22:06;;;;;;;0.82;0.30;;;;;;;5.10;54.62;99946.97;1769966;79;22100;-71
2021/04/26 10:24:33;;;;;;;;;;;;;;;5.40;51.44;99944.58;1766883;79;21230;-68
2021/04/26 10:27:07;;;;;;;1.40;0.40;;;;;;;5.48;54.49;99955.62;1764871;79;20289;-70
2021/04/26 10:29:37;;;;;;;0.78;0.50;;;;;;;5.58;55.15;99933.81;1763361;80;21231;-71
2021/04/26 10:32:16;;;;;;;0.75;0.47;;;;;;;6.11;54.53;99932.58;1762131;79;21193;-72
2021/04/26 10:34:52;;;;;;;1.17;0.50;;;;;;;5.64;51.68;99935.85;1767488;80;21272;-69
2021/04/26 10:37:22;;;;;;;1.25;0.50;;;;;;;5.38;52.54;99938.60;1766992;80;21108;-69
2021/04/26 10:40:07;;;;;;;1.40;0.47;;;;;;;5.13;53.24;99954.67;1765727;79;21174;-68
2021/04/26 10:42:50;;;;;;;1.37;0.80;;;;;;;4.80;53.97;99950.19;1768130;80;21701;-68
2021/04/26 10:45:23;;;;;;;1.35;0.60;;;;;;;4.64;56.51;99978.92;1766210;79;21129;-69
2021/04/26 10:48:06;;;;;;;2.00;0.65;;;;;;;4.70;56.25;99955.97;1768749;80;21211;-68
2021/04/26 10:50:44;;;;;;;1.12;0.70;;;;;;;4.26;56.92;99957.22;1762006;79;21060;-69
2021/04/26 10:53:13;;;;;;;2.62;0.50;;;;;;;4.15;57.34;99961.73;1765002;80;21065;-70
2021/04/26 10:55:47;;;;;;;0.93;0.70;;;;;;;4.11;57.11;99966.52;1766393;80;21180;-69
2021/04/26 10:58:29;;;;;;;1.32;0.50;;;;;;;4.21;57.27;99964.20;1765905;79;21223;-68
2021/04/26 11:00:55;;;;;;;0.95;0.60;;;;;;;4.08;56.67;99976.91;1766397;79;21215;-68
2021/04/26 11:03:31;;;;;;;1.15;0.78;;;;;;;3.86;57.08;99963.93;1769847;80;21179;-68
2021/04/26 11:06:11;;;;;;;1.27;0.40;;;;;;;3.84;57.43;99954.05;1769922;80;21214;-68
2021/04/26 11:08:54;;;;;;;1.32;0.70;;;;;;;4.09;57.95;99948.92;1769208;79;21413;-67
2021/04/26 11:11:29;;;;;;;1.12;0.70;;;;;;;4.43;57.52;99948.31;1768189;80;21147;-68
2021/04/26 11:13:57;;;;;;;2.62;0.80;;;;;;;4.91;57.87;99941.32;1762174;79;21225;-68
2021/04/26 11:16:31;;;;;;;1.85;0.78;;;;;;;5.39;55.77;99932.53;1760906;79;21252;-70
2021/04/26 11:19:06;;;;;;;1.55;0.90;;;;;;;5.36;56.94;99933.45;1766667;79;21148;-70
2021/04/26 11:21:49;;;;;;;0.90;0.72;;;;;;;5.43;56.23;99940.62;1769362;79;21652;-70
2021/04/26 11:24:31;;;;;;;1.42;0.80;;;;;;;5.43;56.53;99928.12;1764225;79;21211;-72
2021/04/26 11:27:15;;;;;;;1.85;0.98;;;;;;;5.39;56.45;99942.88;1764699;79;22189;-72
2021/04/26 11:29:52;;;;;;;4.12;0.90;;;;;;;5.42;55.35;99929.86;1764358;80;21658;-71
2021/04/26 11:32:19;;;;;;;1.42;0.80;;;;;;;5.53;55.93;99933.06;1762839;79;21138;-71
2021/04/26 11:34:56;;;;;;;3.37;0.90;;;;;;;5.96;55.66;99924.27;1766706;80;21013;-71
2021/04/26 11:37:29;;;;;;;1.98;0.72;;;;;;;6.41;56.05;99925.71;1772478;80;21211;-72
2021/04/26 11:39:56;;;;;;;0.75;0.70;;;;;;;6.50;52.28;99928.92;1769281;80;21176;-72
2021/04/26 11:42:31;;;;;;;0.98;0.62;;;;;;;5.92;50.28;99932.99;1762742;80;21234;-71
2021/04/26 11:45:03;;;;;;;1.62;0.70;;;;;;;5.71;53.62;99930.91;1768170;79;21879;-71
2021/04/26 11:47:30;;;;;;;1.12;0.80;;;;;;;5.69;53.89;99928.38;1763030;80;21226;-70
2021/04/26 11:50:01;;;;;;;1.50;0.80;;;;;;;5.65;52.58;99925.88;1731864;81;21145;-71
2021/04/26 11:52:32;;;;;;;1.55;0.50;;;;;;;5.61;53.51;99922.08;1747962;81;22268;-71
2021/04/26 11:55:13;;;;;;;4.40;0.70;;;;;;;5.69;52.79;99921.05;1746563;81;21194;-71
2021/04/26 11:57:47;;;;;;;5.83;0.85;;;;;;;6.05;54.25;99908.50;1749099;80;21218;-70
2021/04/26 12:00:19;;;;;;;1.90;0.62;;;;;;;6.46;54.91;99922.09;1749056;81;21597;-70